Terminal Aerodrome Forecast
Issued by NWS Pocatello, ID

Home | Current Version | Previous Version | Text Only | Print | Product List | Glossary On
Versions: 1 2 3 4 5 6 7 8 9 10 11 12 13 14 15 16 17 18 19 20
000
FTUS45 KPIH 231700
TAFBYI
TAF
KBYI 231723Z 2318/2418 27020G30KT P6SM FEW008 FEW070 SCT120
     FM240000 26015G25KT P6SM SCT040 BKN100
     FM240200 24010KT P6SM BKN040 BKN100
     FM240800 18010KT P6SM VCSH BKN025 BKN090
     FM241200 17015KT P6SM SCT015 SCT130=

USA.gov is the U.S. government's official web portal to all federal, state and local government web resources and services.